sensor_id;sensor_type;location;lat;lon;timestamp;pressure;altitude;pressure_sealevel;temperature;humidity
71559;BME280;59382;43.852;25.952;2022-07-30T00:02:02;101126.44;;;28.43;38.22
71559;BME280;59382;43.852;25.952;2022-07-30T00:04:28;101135.41;;;28.40;38.49
71559;BME280;59382;43.852;25.952;2022-07-30T00:06:54;101130.63;;;28.32;38.83
71559;BME280;59382;43.852;25.952;2022-07-30T00:09:20;101108.84;;;28.17;38.64
71559;BME280;59382;43.852;25.952;2022-07-30T00:11:45;101111.59;;;28.17;38.85
71559;BME280;59382;43.852;25.952;2022-07-30T00:14:11;101119.75;;;28.14;39.45
71559;BME280;59382;43.852;25.952;2022-07-30T00:16:36;101115.78;;;28.06;39.15
71559;BME280;59382;43.852;25.952;2022-07-30T00:19:02;101130.34;;;28.12;39.55
71559;BME280;59382;43.852;25.952;2022-07-30T00:21:28;101105.94;;;28.00;39.61
71559;BME280;59382;43.852;25.952;2022-07-30T00:23:53;101118.72;;;28.01;39.97
71559;BME280;59382;43.852;25.952;2022-07-30T00:26:19;101121.97;;;28.03;39.86
71559;BME280;59382;43.852;25.952;2022-07-30T00:28:46;101125.88;;;28.02;39.85
71559;BME280;59382;43.852;25.952;2022-07-30T00:31:12;101129.81;;;28.01;39.92
71559;BME280;59382;43.852;25.952;2022-07-30T00:33:38;101114.44;;;27.95;40.20
71559;BME280;59382;43.852;25.952;2022-07-30T00:36:03;101118.66;;;27.93;40.19
71559;BME280;59382;43.852;25.952;2022-07-30T00:38:29;101134.34;;;27.97;40.62
71559;BME280;59382;43.852;25.952;2022-07-30T00:40:54;101127.78;;;27.93;40.92
71559;BME280;59382;43.852;25.952;2022-07-30T00:43:20;101131.69;;;27.92;41.04
71559;BME280;59382;43.852;25.952;2022-07-30T00:45:46;101126.28;;;27.87;41.40
71559;BME280;59382;43.852;25.952;2022-07-30T00:48:12;101135.19;;;27.84;41.71
71559;BME280;59382;43.852;25.952;2022-07-30T00:50:39;101129.66;;;27.84;42.15
71559;BME280;59382;43.852;25.952;2022-07-30T00:53:05;101119.19;;;27.81;42.63
71559;BME280;59382;43.852;25.952;2022-07-30T00:55:31;101105.06;;;27.69;43.07
71559;BME280;59382;43.852;25.952;2022-07-30T00:57:57;101108.97;;;27.68;43.24
71559;BME280;59382;43.852;25.952;2022-07-30T01:00:23;101122.91;;;27.77;43.96
71559;BME280;59382;43.852;25.952;2022-07-30T01:02:49;101120.44;;;27.75;43.93
71559;BME280;59382;43.852;25.952;2022-07-30T01:05:15;101091.84;;;27.66;44.76
71559;BME280;59382;43.852;25.952;2022-07-30T01:07:41;101109.81;;;27.69;45.49
71559;BME280;59382;43.852;25.952;2022-07-30T01:10:09;101099.78;;;27.59;45.63
71559;BME280;59382;43.852;25.952;2022-07-30T01:12:35;101107.59;;;27.57;45.80
71559;BME280;59382;43.852;25.952;2022-07-30T01:15:06;101114.59;;;27.55;46.14
71559;BME280;59382;43.852;25.952;2022-07-30T01:17:33;101113.75;;;27.54;46.63
71559;BME280;59382;43.852;25.952;2022-07-30T01:20:03;101120.97;;;27.55;47.27
71559;BME280;59382;43.852;25.952;2022-07-30T01:23:24;101112.75;;;27.50;48.03
71559;BME280;59382;43.852;25.952;2022-07-30T01:25:47;101111.25;;;27.44;47.93
71559;BME280;59382;43.852;25.952;2022-07-30T01:28:15;101095.50;;;27.31;48.71
71559;BME280;59382;43.852;25.952;2022-07-30T01:30:43;101097.44;;;27.31;49.18
71559;BME280;59382;43.852;25.952;2022-07-30T01:33:13;101093.13;;;27.25;49.39
71559;BME280;59382;43.852;25.952;2022-07-30T01:35:40;101102.78;;;27.27;49.80
71559;BME280;59382;43.852;25.952;2022-07-30T01:38:09;101089.66;;;27.19;50.22
71559;BME280;59382;43.852;25.952;2022-07-30T01:40:37;101088.00;;;27.18;50.15
71559;BME280;59382;43.852;25.952;2022-07-30T01:43:05;101089.03;;;27.22;50.03
71559;BME280;59382;43.852;25.952;2022-07-30T01:45:33;101075.28;;;27.17;49.81
71559;BME280;59382;43.852;25.952;2022-07-30T01:48:02;101096.63;;;27.30;49.89
71559;BME280;59382;43.852;25.952;2022-07-30T01:50:30;101087.81;;;27.28;49.99
71559;BME280;59382;43.852;25.952;2022-07-30T01:52:56;101094.22;;;27.37;49.76
71559;BME280;59382;43.852;25.952;2022-07-30T01:55:38;101092.97;;;27.43;49.39
71559;BME280;59382;43.852;25.952;2022-07-30T01:58:05;101088.44;;;27.47;49.51
71559;BME280;59382;43.852;25.952;2022-07-30T02:00:33;101082.41;;;27.45;49.37
71559;BME280;59382;43.852;25.952;2022-07-30T02:03:00;101085.66;;;27.47;49.21
71559;BME280;59382;43.852;25.952;2022-07-30T02:05:29;101086.03;;;27.54;49.02
71559;BME280;59382;43.852;25.952;2022-07-30T02:08:04;101088.81;;;27.54;49.42
71559;BME280;59382;43.852;25.952;2022-07-30T02:10:43;101089.31;;;27.56;48.89
71559;BME280;59382;43.852;25.952;2022-07-30T02:13:10;101084.41;;;27.53;49.00
71559;BME280;59382;43.852;25.952;2022-07-30T02:15:58;101092.97;;;27.65;48.89
71559;BME280;59382;43.852;25.952;2022-07-30T02:18:30;101090.09;;;27.70;48.90
71559;BME280;59382;43.852;25.952;2022-07-30T02:21:02;101087.63;;;27.69;48.77
71559;BME280;59382;43.852;25.952;2022-07-30T02:23:30;101078.13;;;27.61;48.61
71559;BME280;59382;43.852;25.952;2022-07-30T02:26:00;101087.44;;;27.65;48.79
71559;BME280;59382;43.852;25.952;2022-07-30T02:28:29;101084.66;;;27.65;48.85
71559;BME280;59382;43.852;25.952;2022-07-30T02:30:59;101082.00;;;27.60;48.82
71559;BME280;59382;43.852;25.952;2022-07-30T02:33:28;101071.69;;;27.52;48.84
71559;BME280;59382;43.852;25.952;2022-07-30T02:35:55;101077.03;;;27.49;48.93
71559;BME280;59382;43.852;25.952;2022-07-30T02:38:23;101078.38;;;27.51;49.18
71559;BME280;59382;43.852;25.952;2022-07-30T02:40:54;101082.41;;;27.45;49.11
71559;BME280;59382;43.852;25.952;2022-07-30T02:43:23;101079.13;;;27.43;49.43
71559;BME280;59382;43.852;25.952;2022-07-30T02:45:50;101088.38;;;27.39;49.26
71559;BME280;59382;43.852;25.952;2022-07-30T02:48:17;101080.00;;;27.30;49.38
71559;BME280;59382;43.852;25.952;2022-07-30T02:50:45;101083.25;;;27.32;49.63
71559;BME280;59382;43.852;25.952;2022-07-30T02:53:13;101089.22;;;27.39;49.69
71559;BME280;59382;43.852;25.952;2022-07-30T02:55:41;101083.25;;;27.32;49.47
71559;BME280;59382;43.852;25.952;2022-07-30T02:58:08;101084.41;;;27.31;49.53
71559;BME280;59382;43.852;25.952;2022-07-30T03:00:36;101085.53;;;27.30;49.86
71559;BME280;59382;43.852;25.952;2022-07-30T03:03:04;101078.47;;;27.24;49.83
71559;BME280;59382;43.852;25.952;2022-07-30T03:05:31;101071.38;;;27.18;50.00
71559;BME280;59382;43.852;25.952;2022-07-30T03:07:58;101076.94;;;27.18;49.75
71559;BME280;59382;43.852;25.952;2022-07-30T03:10:26;101088.81;;;27.19;50.11
71559;BME280;59382;43.852;25.952;2022-07-30T03:12:52;101089.25;;;27.12;49.98
71559;BME280;59382;43.852;25.952;2022-07-30T03:15:18;101094.41;;;27.05;50.29
71559;BME280;59382;43.852;25.952;2022-07-30T03:17:47;101093.38;;;27.01;50.46
71559;BME280;59382;43.852;25.952;2022-07-30T03:20:16;101075.06;;;26.92;50.73
71559;BME280;59382;43.852;25.952;2022-07-30T03:22:45;101091.06;;;26.95;50.93
71559;BME280;59382;43.852;25.952;2022-07-30T03:25:15;101095.66;;;26.99;50.74
71559;BME280;59382;43.852;25.952;2022-07-30T03:27:43;101094.00;;;26.98;50.48
71559;BME280;59382;43.852;25.952;2022-07-30T03:30:11;101106.44;;;27.01;50.59
71559;BME280;59382;43.852;25.952;2022-07-30T03:32:37;101110.00;;;27.01;50.66
71559;BME280;59382;43.852;25.952;2022-07-30T03:35:05;101114.28;;;27.07;50.61
71559;BME280;59382;43.852;25.952;2022-07-30T03:37:34;101105.69;;;26.95;50.91
71559;BME280;59382;43.852;25.952;2022-07-30T03:40:00;101116.16;;;26.98;50.79
71559;BME280;59382;43.852;25.952;2022-07-30T03:42:26;101103.69;;;26.87;51.18
71559;BME280;59382;43.852;25.952;2022-07-30T03:44:52;101119.69;;;26.90;51.14
71559;BME280;59382;43.852;25.952;2022-07-30T03:47:19;101099.25;;;26.72;51.14
71559;BME280;59382;43.852;25.952;2022-07-30T03:49:51;101106.16;;;26.75;51.50
71559;BME280;59382;43.852;25.952;2022-07-30T03:52:18;101115.78;;;26.77;51.50
71559;BME280;59382;43.852;25.952;2022-07-30T03:54:45;101115.16;;;26.67;51.91
71559;BME280;59382;43.852;25.952;2022-07-30T03:57:11;101113.31;;;26.62;51.91
71559;BME280;59382;43.852;25.952;2022-07-30T03:59:37;101110.00;;;26.60;52.25
71559;BME280;59382;43.852;25.952;2022-07-30T04:02:03;101108.69;;;26.58;52.27
71559;BME280;59382;43.852;25.952;2022-07-30T04:04:29;101108.81;;;26.53;52.05
71559;BME280;59382;43.852;25.952;2022-07-30T04:06:56;101115.25;;;26.62;52.14
71559;BME280;59382;43.852;25.952;2022-07-30T04:09:22;101121.63;;;26.62;52.16
71559;BME280;59382;43.852;25.952;2022-07-30T04:11:48;101120.06;;;26.56;52.63
71559;BME280;59382;43.852;25.952;2022-07-30T04:14:13;101121.31;;;26.64;52.41
71559;BME280;59382;43.852;25.952;2022-07-30T04:16:46;101119.47;;;26.73;52.66
71559;BME280;59382;43.852;25.952;2022-07-30T04:19:21;101127.69;;;26.78;52.53
71559;BME280;59382;43.852;25.952;2022-07-30T04:21:48;101130.31;;;26.83;52.18
71559;BME280;59382;43.852;25.952;2022-07-30T04:24:15;101119.47;;;26.73;52.71
71559;BME280;59382;43.852;25.952;2022-07-30T04:26:43;101117.31;;;26.70;52.84
71559;BME280;59382;43.852;25.952;2022-07-30T04:29:10;101131.56;;;26.77;52.78
71559;BME280;59382;43.852;25.952;2022-07-30T04:31:36;101117.22;;;26.75;52.66
71559;BME280;59382;43.852;25.952;2022-07-30T04:34:03;101118.47;;;26.69;53.16
71559;BME280;59382;43.852;25.952;2022-07-30T04:36:30;101117.41;;;26.65;53.19
71559;BME280;59382;43.852;25.952;2022-07-30T04:38:56;101131.25;;;26.65;53.42
71559;BME280;59382;43.852;25.952;2022-07-30T04:41:22;101121.91;;;26.61;53.28
71559;BME280;59382;43.852;25.952;2022-07-30T04:43:48;101127.25;;;26.71;53.27
71559;BME280;59382;43.852;25.952;2022-07-30T04:46:13;101129.94;;;26.76;53.19
71559;BME280;59382;43.852;25.952;2022-07-30T04:48:39;101130.94;;;26.80;53.10
71559;BME280;59382;43.852;25.952;2022-07-30T04:51:10;101130.94;;;26.80;53.50
71559;BME280;59382;43.852;25.952;2022-07-30T04:53:37;101127.25;;;26.84;53.29
71559;BME280;59382;43.852;25.952;2022-07-30T04:56:04;101117.63;;;26.82;53.35
71559;BME280;59382;43.852;25.952;2022-07-30T04:58:32;101133.53;;;26.90;53.55
71559;BME280;59382;43.852;25.952;2022-07-30T05:00:59;101124.91;;;26.92;53.90
71559;BME280;59382;43.852;25.952;2022-07-30T05:03:26;101119.84;;;26.94;53.73
71559;BME280;59382;43.852;25.952;2022-07-30T05:05:54;101103.06;;;26.90;54.34
71559;BME280;59382;43.852;25.952;2022-07-30T05:08:25;101126.22;;;26.94;54.28
71559;BME280;59382;43.852;25.952;2022-07-30T05:10:51;101111.47;;;26.85;54.59
71559;BME280;59382;43.852;25.952;2022-07-30T05:13:17;101122.75;;;26.89;54.77
71559;BME280;59382;43.852;25.952;2022-07-30T05:15:42;101133.00;;;26.88;54.98
71559;BME280;59382;43.852;25.952;2022-07-30T05:18:11;101129.94;;;26.90;54.94
71559;BME280;59382;43.852;25.952;2022-07-30T05:20:37;101136.09;;;26.87;55.21
71559;BME280;59382;43.852;25.952;2022-07-30T05:23:04;101117.63;;;26.82;55.36
71559;BME280;59382;43.852;25.952;2022-07-30T05:25:30;101129.31;;;26.93;55.21
71559;BME280;59382;43.852;25.952;2022-07-30T05:27:55;101134.31;;;27.04;55.31
71559;BME280;59382;43.852;25.952;2022-07-30T05:30:23;101130.81;;;27.12;55.13
71559;BME280;59382;43.852;25.952;2022-07-30T05:32:49;101118.34;;;27.23;54.96
71559;BME280;59382;43.852;25.952;2022-07-30T05:35:14;101113.88;;;27.27;54.82
71559;BME280;59382;43.852;25.952;2022-07-30T05:37:40;101107.47;;;27.40;54.75
71559;BME280;59382;43.852;25.952;2022-07-30T05:40:09;101107.34;;;27.45;54.69
71559;BME280;59382;43.852;25.952;2022-07-30T05:42:34;101108.56;;;27.53;54.70
71559;BME280;59382;43.852;25.952;2022-07-30T05:45:00;101120.06;;;27.68;54.26
71559;BME280;59382;43.852;25.952;2022-07-30T05:47:26;101123.09;;;27.80;54.11
71559;BME280;59382;43.852;25.952;2022-07-30T05:49:51;101120.22;;;27.85;54.48
71559;BME280;59382;43.852;25.952;2022-07-30T05:52:17;101123.59;;;27.96;54.07
71559;BME280;59382;43.852;25.952;2022-07-30T05:54:44;101106.97;;;28.04;53.73
71559;BME280;59382;43.852;25.952;2022-07-30T05:57:10;101118.34;;;28.25;53.34
71559;BME280;59382;43.852;25.952;2022-07-30T05:59:35;101104.88;;;28.40;52.87
71559;BME280;59382;43.852;25.952;2022-07-30T06:02:02;101108.88;;;28.56;52.55
71559;BME280;59382;43.852;25.952;2022-07-30T06:04:28;101118.09;;;28.83;52.01
71559;BME280;59382;43.852;25.952;2022-07-30T06:06:53;101116.06;;;29.05;51.72
71559;BME280;59382;43.852;25.952;2022-07-30T06:09:19;101100.22;;;29.23;51.00
71559;BME280;59382;43.852;25.952;2022-07-30T06:11:45;101111.00;;;29.50;50.76
71559;BME280;59382;43.852;25.952;2022-07-30T06:14:10;101111.06;;;29.67;50.32
71559;BME280;59382;43.852;25.952;2022-07-30T06:16:36;101113.44;;;29.94;49.90
71559;BME280;59382;43.852;25.952;2022-07-30T06:19:03;101112.91;;;30.26;49.20
71559;BME280;59382;43.852;25.952;2022-07-30T06:21:29;101103.94;;;30.50;48.96
71559;BME280;59382;43.852;25.952;2022-07-30T06:23:56;101101.22;;;30.70;48.32
71559;BME280;59382;43.852;25.952;2022-07-30T06:26:22;101095.78;;;30.82;47.56
71559;BME280;59382;43.852;25.952;2022-07-30T06:28:47;101103.56;;;30.97;47.31
71559;BME280;59382;43.852;25.952;2022-07-30T06:31:13;101103.91;;;31.16;47.18
71559;BME280;59382;43.852;25.952;2022-07-30T06:33:39;101099.56;;;31.27;46.77
71559;BME280;59382;43.852;25.952;2022-07-30T06:36:05;101097.66;;;31.40;46.24
71559;BME280;59382;43.852;25.952;2022-07-30T06:38:31;101094.94;;;31.52;46.29
71559;BME280;59382;43.852;25.952;2022-07-30T06:40:56;101104.44;;;31.71;45.74
71559;BME280;59382;43.852;25.952;2022-07-30T06:43:22;101092.31;;;31.88;45.05
71559;BME280;59382;43.852;25.952;2022-07-30T06:45:47;101101.81;;;32.07;45.14
71559;BME280;59382;43.852;25.952;2022-07-30T06:48:13;101075.28;;;32.13;44.75
71559;BME280;59382;43.852;25.952;2022-07-30T06:50:39;101079.63;;;32.35;43.97
71559;BME280;59382;43.852;25.952;2022-07-30T06:53:06;101079.28;;;32.49;44.01
71559;BME280;59382;43.852;25.952;2022-07-30T06:55:32;101080.47;;;32.60;43.79
71559;BME280;59382;43.852;25.952;2022-07-30T06:57:57;101079.28;;;32.73;43.34
71559;BME280;59382;43.852;25.952;2022-07-30T07:00:23;101072.06;;;32.84;42.91
71559;BME280;59382;43.852;25.952;2022-07-30T07:02:50;101061.59;;;32.93;42.83
71559;BME280;59382;43.852;25.952;2022-07-30T07:05:16;101069.28;;;33.08;42.64
71559;BME280;59382;43.852;25.952;2022-07-30T07:07:42;101062.63;;;33.12;42.19
71559;BME280;59382;43.852;25.952;2022-07-30T07:10:08;101071.28;;;33.23;41.50
71559;BME280;59382;43.852;25.952;2022-07-30T07:12:34;101060.81;;;33.20;41.82
71559;BME280;59382;43.852;25.952;2022-07-30T07:15:00;101052.31;;;33.28;41.40
71559;BME280;59382;43.852;25.952;2022-07-30T07:17:27;101057.53;;;33.42;41.35
71559;BME280;59382;43.852;25.952;2022-07-30T07:19:52;101050.88;;;33.46;40.53
71559;BME280;59382;43.852;25.952;2022-07-30T07:22:18;101047.44;;;33.53;40.35
71559;BME280;59382;43.852;25.952;2022-07-30T07:24:43;101057.63;;;33.73;39.96
71559;BME280;59382;43.852;25.952;2022-07-30T07:27:09;101049.88;;;33.82;39.66
71559;BME280;59382;43.852;25.952;2022-07-30T07:29:35;101053.53;;;33.98;39.36
71559;BME280;59382;43.852;25.952;2022-07-30T07:32:00;101046.47;;;34.04;38.79
71559;BME280;59382;43.852;25.952;2022-07-30T07:34:26;101054.69;;;34.13;38.16
71559;BME280;59382;43.852;25.952;2022-07-30T07:36:51;101056.41;;;34.17;37.91
71559;BME280;59382;43.852;25.952;2022-07-30T07:39:17;101059.38;;;34.24;38.02
71559;BME280;59382;43.852;25.952;2022-07-30T07:41:45;101048.59;;;34.38;37.48
71559;BME280;59382;43.852;25.952;2022-07-30T07:44:11;101037.84;;;34.40;37.28
71559;BME280;59382;43.852;25.952;2022-07-30T07:46:36;101029.78;;;34.39;37.29
71559;BME280;59382;43.852;25.952;2022-07-30T07:49:02;101044.94;;;34.53;36.91
71559;BME280;59382;43.852;25.952;2022-07-30T07:51:28;101040.97;;;34.54;36.34
71559;BME280;59382;43.852;25.952;2022-07-30T07:53:56;101051.25;;;34.66;35.75
71559;BME280;59382;43.852;25.952;2022-07-30T07:56:21;101043.38;;;34.71;35.73
71559;BME280;59382;43.852;25.952;2022-07-30T07:58:47;101050.84;;;34.83;35.51
71559;BME280;59382;43.852;25.952;2022-07-30T08:01:15;101038.13;;;34.85;35.61
71559;BME280;59382;43.852;25.952;2022-07-30T08:03:44;101039.91;;;34.93;34.91
71559;BME280;59382;43.852;25.952;2022-07-30T08:06:09;101038.00;;;34.97;35.03
71559;BME280;59382;43.852;25.952;2022-07-30T08:08:35;101048.19;;;35.05;34.52
71559;BME280;59382;43.852;25.952;2022-07-30T08:11:02;101045.66;;;35.00;34.00
71559;BME280;59382;43.852;25.952;2022-07-30T08:13:27;101041.69;;;35.01;34.27
71559;BME280;59382;43.852;25.952;2022-07-30T08:15:53;101036.25;;;35.08;34.50
71559;BME280;59382;43.852;25.952;2022-07-30T08:18:19;101042.88;;;35.19;34.63
71559;BME280;59382;43.852;25.952;2022-07-30T08:20:44;101024.28;;;35.11;34.81
71559;BME280;59382;43.852;25.952;2022-07-30T08:23:10;101035.50;;;35.11;35.04
71559;BME280;59382;43.852;25.952;2022-07-30T08:25:35;101042.81;;;35.16;35.52
71559;BME280;59382;43.852;25.952;2022-07-30T08:28:01;101040.38;;;35.14;35.53
71559;BME280;59382;43.852;25.952;2022-07-30T08:30:28;101040.38;;;35.14;35.35
71559;BME280;59382;43.852;25.952;2022-07-30T08:32:54;101038.69;;;35.10;35.85
71559;BME280;59382;43.852;25.952;2022-07-30T08:35:19;101036.81;;;34.98;36.17
71559;BME280;59382;43.852;25.952;2022-07-30T08:37:45;101041.97;;;34.96;36.23
71559;BME280;59382;43.852;25.952;2022-07-30T08:40:11;101028.09;;;35.03;36.40
71559;BME280;59382;43.852;25.952;2022-07-30T08:42:36;101019.81;;;34.91;36.26
71559;BME280;59382;43.852;25.952;2022-07-30T08:45:02;101034.22;;;34.90;36.17
71559;BME280;59382;43.852;25.952;2022-07-30T08:47:33;101028.25;;;34.91;36.11
71559;BME280;59382;43.852;25.952;2022-07-30T08:50:00;101026.16;;;34.88;35.91
71559;BME280;59382;43.852;25.952;2022-07-30T08:52:34;101027.34;;;34.87;36.04
71559;BME280;59382;43.852;25.952;2022-07-30T08:55:04;101014.69;;;34.78;36.30
71559;BME280;59382;43.852;25.952;2022-07-30T08:57:32;101017.06;;;34.76;35.62
71559;BME280;59382;43.852;25.952;2022-07-30T08:59:58;101017.13;;;34.79;35.96
71559;BME280;59382;43.852;25.952;2022-07-30T09:02:24;100999.41;;;34.75;35.90
71559;BME280;59382;43.852;25.952;2022-07-30T09:04:50;101008.56;;;34.88;35.86
71559;BME280;59382;43.852;25.952;2022-07-30T09:07:15;101005.16;;;34.82;36.04
71559;BME280;59382;43.852;25.952;2022-07-30T09:09:41;101009.91;;;34.78;36.04
71559;BME280;59382;43.852;25.952;2022-07-30T09:12:41;101005.91;;;34.79;35.73
71559;BME280;59382;43.852;25.952;2022-07-30T09:15:16;100988.19;;;34.75;35.84
71559;BME280;59382;43.852;25.952;2022-07-30T09:20:11;100993.06;;;34.78;35.70
71559;BME280;59382;43.852;25.952;2022-07-30T09:22:45;100990.72;;;34.80;35.67
71559;BME280;59382;43.852;25.952;2022-07-30T09:25:11;100990.91;;;34.87;35.32
71559;BME280;59382;43.852;25.952;2022-07-30T09:27:48;100984.84;;;34.85;35.24
71559;BME280;59382;43.852;25.952;2022-07-30T09:30:14;100975.59;;;34.85;35.06
71559;BME280;59382;43.852;25.952;2022-07-30T09:32:54;100974.06;;;34.87;35.13
71559;BME280;59382;43.852;25.952;2022-07-30T09:35:22;100964.31;;;34.81;35.27
71559;BME280;59382;43.852;25.952;2022-07-30T09:37:57;100980.41;;;34.84;35.57
71559;BME280;59382;43.852;25.952;2022-07-30T09:40:24;100956.91;;;34.73;35.72
71559;BME280;59382;43.852;25.952;2022-07-30T09:43:01;100948.94;;;34.75;35.59
71559;BME280;59382;43.852;25.952;2022-07-30T09:45:28;100952.63;;;34.79;35.45
71559;BME280;59382;43.852;25.952;2022-07-30T09:47:53;100948.66;;;34.80;35.28
71559;BME280;59382;43.852;25.952;2022-07-30T09:50:19;100953.09;;;34.81;34.97
71559;BME280;59382;43.852;25.952;2022-07-30T09:52:46;100959.78;;;34.92;35.28
71559;BME280;59382;43.852;25.952;2022-07-30T09:55:14;100934.38;;;34.85;35.17
71559;BME280;59382;43.852;25.952;2022-07-30T09:57:57;100938.09;;;34.89;35.00
71559;BME280;59382;43.852;25.952;2022-07-30T10:00:26;100954.53;;;35.10;34.94
71559;BME280;59382;43.852;25.952;2022-07-30T10:02:55;100948.97;;;35.13;35.25
71559;BME280;59382;43.852;25.952;2022-07-30T10:05:21;100955.47;;;35.17;34.96
71559;BME280;59382;43.852;25.952;2022-07-30T10:08:00;100951.19;;;35.04;35.33
71559;BME280;59382;43.852;25.952;2022-07-30T10:10:28;100938.09;;;34.89;35.67
71559;BME280;59382;43.852;25.952;2022-07-30T10:12:59;100938.81;;;34.86;35.92
71559;BME280;59382;43.852;25.952;2022-07-30T10:15:33;100939.25;;;34.88;35.92
71559;BME280;59382;43.852;25.952;2022-07-30T10:18:03;100937.47;;;34.80;35.75
71559;BME280;59382;43.852;25.952;2022-07-30T10:20:29;100928.59;;;34.78;35.79
71559;BME280;59382;43.852;25.952;2022-07-30T10:22:56;100926.59;;;34.79;35.72
71559;BME280;59382;43.852;25.952;2022-07-30T10:25:26;100915.75;;;34.77;35.71
71559;BME280;59382;43.852;25.952;2022-07-30T10:27:54;100916.13;;;34.76;35.67
71559;BME280;59382;43.852;25.952;2022-07-30T10:30:20;100921.75;;;34.76;35.73
71559;BME280;59382;43.852;25.952;2022-07-30T10:32:45;100915.31;;;34.75;35.56
71559;BME280;59382;43.852;25.952;2022-07-30T10:35:14;100899.22;;;34.72;35.24
71559;BME280;59382;43.852;25.952;2022-07-30T10:37:45;100893.63;;;34.72;35.20
71559;BME280;59382;43.852;25.952;2022-07-30T10:40:32;100893.75;;;34.79;35.42
71559;BME280;59382;43.852;25.952;2022-07-30T10:43:16;100901.75;;;34.77;35.17
71559;BME280;59382;43.852;25.952;2022-07-30T10:46:08;100893.47;;;34.65;34.97
71559;BME280;59382;43.852;25.952;2022-07-30T10:48:38;100885.50;;;34.67;34.91
71559;BME280;59382;43.852;25.952;2022-07-30T10:51:04;100893.53;;;34.69;35.31
71559;BME280;59382;43.852;25.952;2022-07-30T10:53:40;100899.13;;;34.69;35.20
71559;BME280;59382;43.852;25.952;2022-07-30T11:04:28;100870.22;;;34.65;34.07
71559;BME280;59382;43.852;25.952;2022-07-30T11:09:46;100868.97;;;34.81;33.63
71559;BME280;59382;43.852;25.952;2022-07-30T11:12:12;100858.22;;;34.83;34.01
71559;BME280;59382;43.852;25.952;2022-07-30T11:17:16;100867.41;;;34.84;33.93
71559;BME280;59382;43.852;25.952;2022-07-30T11:22:35;100854.81;;;34.74;33.58
71559;BME280;59382;43.852;25.952;2022-07-30T11:25:08;100865.72;;;34.79;33.69
71559;BME280;59382;43.852;25.952;2022-07-30T11:27:43;100854.09;;;34.77;33.63
71559;BME280;59382;43.852;25.952;2022-07-30T11:32:42;100858.66;;;34.85;33.39
71559;BME280;59382;43.852;25.952;2022-07-30T11:35:25;100857.63;;;34.74;33.28
71559;BME280;59382;43.852;25.952;2022-07-30T11:40:23;100834.47;;;34.77;33.02
71559;BME280;59382;43.852;25.952;2022-07-30T11:42:50;100830.09;;;34.80;33.04
71559;BME280;59382;43.852;25.952;2022-07-30T11:45:20;100822.50;;;34.80;33.01
71559;BME280;59382;43.852;25.952;2022-07-30T11:47:49;100825.84;;;34.86;32.23
71559;BME280;59382;43.852;25.952;2022-07-30T11:50:22;100839.19;;;34.92;32.36
71559;BME280;59382;43.852;25.952;2022-07-30T11:52:59;100812.75;;;34.93;32.48
71559;BME280;59382;43.852;25.952;2022-07-30T11:57:55;100777.66;;;34.80;31.98
71559;BME280;59382;43.852;25.952;2022-07-30T12:00:21;100782.50;;;34.83;32.05
71559;BME280;59382;43.852;25.952;2022-07-30T12:02:47;100796.81;;;34.97;31.98
71559;BME280;59382;43.852;25.952;2022-07-30T12:05:14;100788.41;;;34.97;31.48
71559;BME280;59382;43.852;25.952;2022-07-30T12:07:40;100778.03;;;35.01;31.52
71559;BME280;59382;43.852;25.952;2022-07-30T12:10:16;100784.97;;;35.07;31.21
71559;BME280;59382;43.852;25.952;2022-07-30T12:12:43;100777.84;;;35.13;31.17
71559;BME280;59382;43.852;25.952;2022-07-30T12:15:27;100754.06;;;35.04;30.71
71559;BME280;59382;43.852;25.952;2022-07-30T12:17:53;100764.16;;;35.08;30.63
71559;BME280;59382;43.852;25.952;2022-07-30T12:20:19;100761.34;;;35.08;31.22
71559;BME280;59382;43.852;25.952;2022-07-30T12:22:45;100734.69;;;34.95;30.99
71559;BME280;59382;43.852;25.952;2022-07-30T12:25:12;100750.00;;;35.01;30.67
71559;BME280;59382;43.852;25.952;2022-07-30T12:27:38;100739.84;;;34.93;31.01
71559;BME280;59382;43.852;25.952;2022-07-30T12:30:05;100732.50;;;34.85;31.27
71559;BME280;59382;43.852;25.952;2022-07-30T12:32:31;100748.19;;;34.90;30.25
71559;BME280;59382;43.852;25.952;2022-07-30T12:34:57;100731.31;;;34.86;30.05
71559;BME280;59382;43.852;25.952;2022-07-30T12:37:23;100737.53;;;34.99;30.27
71559;BME280;59382;43.852;25.952;2022-07-30T12:40:13;100730.81;;;35.03;29.88
71559;BME280;59382;43.852;25.952;2022-07-30T12:42:48;100707.63;;;35.06;29.32
71559;BME280;59382;43.852;25.952;2022-07-30T12:45:29;100698.91;;;35.11;29.16
71559;BME280;59382;43.852;25.952;2022-07-30T12:47:56;100690.13;;;35.13;28.96
71559;BME280;59382;43.852;25.952;2022-07-30T12:50:22;100694.38;;;35.29;28.66
71559;BME280;59382;43.852;25.952;2022-07-30T12:52:50;100680.34;;;35.29;28.50
71559;BME280;59382;43.852;25.952;2022-07-30T12:55:18;100676.34;;;35.30;28.00
71559;BME280;59382;43.852;25.952;2022-07-30T12:58:06;100680.19;;;35.41;28.05
71559;BME280;59382;43.852;25.952;2022-07-30T13:00:46;100668.06;;;35.37;27.84
71559;BME280;59382;43.852;25.952;2022-07-30T13:03:27;100661.75;;;35.44;27.92
71559;BME280;59382;43.852;25.952;2022-07-30T13:05:54;100664.94;;;35.42;27.72
71559;BME280;59382;43.852;25.952;2022-07-30T13:08:24;100656.63;;;35.49;27.63
71559;BME280;59382;43.852;25.952;2022-07-30T13:11:06;100654.63;;;35.50;27.02
71559;BME280;59382;43.852;25.952;2022-07-30T13:13:31;100657.06;;;35.51;26.73